Terminal Aerodrome Forecast
Issued by NWS Paducah, KY

Home | Current Version | Previous Version | Text Only | Print | Product List | Glossary On
Versions: 1 2 3 4 5 6 7 8 9 10 11 12 13 14 15 16 17 18 19 20 21 22 23
000
FTUS43 KPAH 031220 AAA
TAFPAH
TAF AMD
KPAH 031220Z 0312/0412 VRB03KT 4SM BR BKN015 BKN100
     FM031600 VRB04KT P6SM VCSH BKN025
      TEMPO 0319/0323 2SM -TSRA BR OVC015CB
     FM032300 01004KT P6SM SCT040 BKN100
     FM040800 34003KT 6SM BR SCT250
      TEMPO 0408/0412 4SM BR=

USA.gov is the U.S. government's official web portal to all federal, state and local government web resources and services.